Lucan, Minnesota
Current Conditions -  °F | °C
As of 3:33 AM on Monday 24 Nov 2014 (Local Time) from KTKC Reporting Station
Overcast Overcast  
Wind Chill:   Ceiling: 1500
Heat Index: 21°   Visibility: 10mi
Dew Point: 16°   Wind: 22mph
Humidity: 83%   Direction: 330°NNW
Pressure: 29.48"   Gusts: 32mph
Location:  44.41°N, 95.41°W
Report Text: KTKC 240933Z AUTO 33019G28KT 10SM OVC015 M06/M09 A2948 RMK AO2 T10631088
Loading
Personal Weather Stations






























Interactive Weather Map New forecast layout! Learn more

10-Day Weather Forecast

Advertisements
Track Severe Weather on mobile